createdAt,value
2023-06-05T00:01:05.494Z,11.7
2023-06-05T00:06:05.466Z,11.7
2023-06-05T00:16:05.516Z,11.7
2023-06-05T00:26:05.456Z,11.7
2023-06-05T00:31:05.499Z,11.7
2023-06-05T00:36:05.481Z,11.7
2023-06-05T00:46:05.541Z,11.8
2023-06-05T00:56:05.456Z,11.8
2023-06-05T01:11:05.548Z,11.7
2023-06-05T01:16:05.485Z,11.8
2023-06-05T01:36:05.493Z,11.8
2023-06-05T01:41:05.498Z,11.8
2023-06-05T01:46:05.528Z,11.8
2023-06-05T01:51:05.567Z,11.8
2023-06-05T01:56:05.495Z,11.8
2023-06-05T02:06:05.491Z,11.8
2023-06-05T02:11:05.489Z,11.9
2023-06-05T02:31:05.507Z,11.8
2023-06-05T02:36:05.510Z,11.8
2023-06-05T02:46:05.626Z,11.8
2023-06-05T02:56:05.533Z,11.9
2023-06-05T03:06:05.642Z,11.9
2023-06-05T03:11:05.498Z,11.8
2023-06-05T03:21:05.498Z,11.7
2023-06-05T03:26:05.505Z,11.7
2023-06-05T03:31:05.559Z,11.7
2023-06-05T03:41:05.505Z,11.8
2023-06-05T03:46:05.513Z,11.8
2023-06-05T03:51:05.515Z,11.8
2023-06-05T04:01:05.545Z,11.7
2023-06-05T04:11:05.556Z,11.7
2023-06-05T04:21:05.531Z,11.8
2023-06-05T04:26:05.565Z,11.8
2023-06-05T04:31:05.717Z,11.8
2023-06-05T04:41:05.571Z,11.8
2023-06-05T04:51:05.578Z,11.8
2023-06-05T05:01:05.572Z,11.7
2023-06-05T05:06:05.581Z,11.8
2023-06-05T05:16:05.613Z,11.8
2023-06-05T05:26:05.575Z,11.8
2023-06-05T05:31:05.597Z,11.8
2023-06-05T05:36:05.566Z,11.8
2023-06-05T05:46:05.588Z,11.8
2023-06-05T05:51:05.579Z,11.8
2023-06-05T06:01:05.579Z,11.9
2023-06-05T06:06:05.923Z,11.9
2023-06-05T06:16:05.598Z,11.9
2023-06-05T06:21:05.579Z,11.8
2023-06-05T06:31:05.693Z,11.8
2023-06-05T06:41:05.599Z,11.9
2023-06-05T06:51:05.601Z,12
2023-06-05T06:56:05.594Z,12
2023-06-05T07:01:05.679Z,12
2023-06-05T07:11:05.584Z,11.9
2023-06-05T07:16:05.635Z,11.9
2023-06-05T07:21:05.618Z,11.9
2023-06-05T07:41:05.704Z,11.9
2023-06-05T07:46:05.660Z,12
2023-06-05T07:56:05.610Z,11.9
2023-06-05T08:01:05.615Z,11.9
2023-06-05T08:06:05.634Z,12
2023-06-05T08:16:05.612Z,12
2023-06-05T08:21:05.638Z,12.1
2023-06-05T08:26:05.605Z,12
2023-06-05T08:31:05.609Z,12
2023-06-05T08:41:05.628Z,12.1
2023-06-05T08:46:05.625Z,12.1
2023-06-05T08:51:05.601Z,12.1
2023-06-05T09:01:05.624Z,12.1
2023-06-05T09:11:05.615Z,12.1
2023-06-05T09:26:05.605Z,12.2
2023-06-05T09:46:05.628Z,12.2
2023-06-05T09:56:05.640Z,12.2
2023-06-05T10:16:11.279Z,12.2
2023-06-05T10:21:05.610Z,12.2
2023-06-05T10:31:05.642Z,12.2
2023-06-05T10:41:05.640Z,12.1
2023-06-05T10:51:05.621Z,12.2
2023-06-05T11:01:05.666Z,12.2
2023-06-05T11:06:05.701Z,12.2
2023-06-05T11:11:05.617Z,12.2
2023-06-05T11:16:05.709Z,12.2
2023-06-05T11:26:05.651Z,12.1
2023-06-05T11:36:05.642Z,12.1
2023-06-05T11:41:05.639Z,12.2
2023-06-05T11:51:05.636Z,12.2
2023-06-05T11:56:05.735Z,12.2
2023-06-05T12:06:05.636Z,12.1
2023-06-05T12:16:05.714Z,12.2
2023-06-05T12:21:05.637Z,12.2
2023-06-05T12:26:05.641Z,12.2
2023-06-05T12:36:05.671Z,12.2
2023-06-05T12:46:05.645Z,12.3
2023-06-05T12:51:05.676Z,12.3
2023-06-05T12:56:05.660Z,12.2
2023-06-05T13:01:05.662Z,12.2
2023-06-05T13:11:05.643Z,12.2
2023-06-05T13:21:05.670Z,12.2
2023-06-05T13:26:05.674Z,12.2
2023-06-05T13:31:05.655Z,12.3
2023-06-05T13:41:05.638Z,12.2
2023-06-05T13:46:05.669Z,12.3
2023-06-05T13:51:05.659Z,12.1
2023-06-05T14:01:05.723Z,12.3
2023-06-05T14:11:05.679Z,12.4
2023-06-05T14:21:05.660Z,12.4
2023-06-05T14:26:05.673Z,12.2
2023-06-05T14:41:05.680Z,12.2
2023-06-05T14:51:05.680Z,12.3
2023-06-05T15:01:05.751Z,12.3
2023-06-05T15:11:05.672Z,12.3
2023-06-05T15:16:05.708Z,12.3
2023-06-05T15:21:05.711Z,12.2
2023-06-05T15:41:05.935Z,12.3
2023-06-05T15:51:05.738Z,12.3
2023-06-05T15:56:05.699Z,12.3
2023-06-05T16:06:05.733Z,12.3
2023-06-05T16:16:05.780Z,12.3
2023-06-05T16:21:05.743Z,12.3
2023-06-05T16:31:05.718Z,12.3
2023-06-05T16:41:05.741Z,12.3
2023-06-05T16:46:05.772Z,12.3
2023-06-05T16:51:05.741Z,12.3
2023-06-05T17:01:05.771Z,12.2
2023-06-05T17:06:06.326Z,12.2
2023-06-05T17:11:05.954Z,12.2
2023-06-05T17:26:05.756Z,12.3
2023-06-05T17:46:05.775Z,12.3
2023-06-05T17:56:05.760Z,12.3
2023-06-05T18:16:05.853Z,12.3
2023-06-05T18:21:05.747Z,12.3
2023-06-05T18:26:05.761Z,12.4
2023-06-05T18:31:05.778Z,12.4
2023-06-05T18:41:05.772Z,12.3
2023-06-05T18:46:05.791Z,12.3
2023-06-05T18:56:05.769Z,12.4
2023-06-05T19:16:05.837Z,12.3
2023-06-05T19:26:05.792Z,12.3
2023-06-05T19:41:05.805Z,12.4
2023-06-05T19:51:05.837Z,12.3
2023-06-05T20:01:05.849Z,12.2
2023-06-05T20:11:05.805Z,12.2
2023-06-05T20:16:05.834Z,12.3
2023-06-05T20:26:05.836Z,12.3
2023-06-05T20:31:05.854Z,12.3
2023-06-05T20:41:05.838Z,12.2
2023-06-05T21:01:05.833Z,12.2
2023-06-05T21:11:05.809Z,12.2
2023-06-05T21:16:05.942Z,12.3
2023-06-05T21:26:05.815Z,12.3
2023-06-05T21:31:06.066Z,12.2
2023-06-05T21:41:05.825Z,12.2
2023-06-05T21:51:05.832Z,12.2
2023-06-05T22:01:05.827Z,12.2
2023-06-05T22:06:05.834Z,12.3
2023-06-05T22:16:05.920Z,12.2
2023-06-05T22:21:05.850Z,12.2
2023-06-05T22:26:05.855Z,12.2
2023-06-05T22:31:05.905Z,12.2
2023-06-05T22:41:05.833Z,12.3
2023-06-05T22:56:05.840Z,12.3
2023-06-05T23:06:05.881Z,12.3
2023-06-05T23:16:05.956Z,12.3
2023-06-05T23:26:05.860Z,12.2
2023-06-05T23:31:05.868Z,12.2
2023-06-05T23:41:05.860Z,12.2
2023-06-05T23:46:05.964Z,12.2
2023-06-05T23:56:05.855Z,12.2
